Time;durP1;ratioP1;P1;durP2;ratioP2;P2;SDS_P1;SDS_P2;PMS_P1;PMS_P2;Temp;Humidity;BMP_temperature;BMP_pressure;BME280_temperature;BME280_humidity;BME280_pressure;Samples;Min_cycle;Max_cycle;Signal;HPM_P1;HPM_P2
2022/11/01 00:00:59;;;;;;;4.30;3.40;;;19.60;57.90;;;;;;5132769;28;20053;-10
2022/11/01 00:03:25;;;;;;;3.47;3.08;;;19.50;57.80;;;;;;5132460;28;20043;-10
2022/11/01 00:05:51;;;;;;;4.10;3.35;;;19.60;57.90;;;;;;5132964;27;20123;-10
2022/11/01 00:08:16;;;;;;;3.70;3.30;;;19.50;57.80;;;;;;5135882;28;20055;-10
2022/11/01 00:10:42;;;;;;;4.60;3.10;;;19.60;57.90;;;;;;5136253;28;20062;-10
2022/11/01 00:13:07;;;;;;;3.83;3.20;;;19.50;57.80;;;;;;5135983;28;20057;-10
2022/11/01 00:15:33;;;;;;;3.95;3.30;;;19.50;57.80;;;;;;5136287;28;20135;-10
2022/11/01 00:17:59;;;;;;;3.60;3.20;;;19.50;57.80;;;;;;5135865;28;20107;-10
2022/11/01 00:20:24;;;;;;;4.10;3.17;;;19.50;57.80;;;;;;5135724;28;20051;-10
2022/11/01 00:22:50;;;;;;;3.33;2.83;;;19.50;57.80;;;;;;5136410;28;20138;-10
2022/11/01 00:25:15;;;;;;;3.85;3.05;;;19.50;58.30;;;;;;5136231;28;20098;-10
2022/11/01 00:27:41;;;;;;;3.58;2.97;;;19.50;57.80;;;;;;5135912;28;20054;-10
2022/11/01 00:30:07;;;;;;;4.60;3.35;;;19.50;57.80;;;;;;5135557;28;20054;-10
2022/11/01 00:32:32;;;;;;;3.92;3.13;;;19.50;57.80;;;;;;5135825;28;20754;-10
2022/11/01 00:34:58;;;;;;;3.83;3.42;;;19.60;57.80;;;;;;5135773;28;20079;-11
2022/11/01 00:37:23;;;;;;;3.33;3.00;;;19.60;57.80;;;;;;5136472;28;20398;-10
2022/11/01 00:39:49;;;;;;;3.47;3.17;;;19.60;57.80;;;;;;5135514;28;20116;-10
2022/11/01 00:42:14;;;;;;;3.50;3.20;;;19.60;57.80;;;;;;5135690;28;20054;-10
2022/11/01 00:44:40;;;;;;;4.05;3.30;;;19.50;57.80;;;;;;5135893;28;20101;-10
2022/11/01 00:47:05;;;;;;;3.30;3.00;;;19.50;57.80;;;;;;5135496;28;20058;-10
2022/11/01 00:49:31;;;;;;;3.22;2.92;;;19.50;57.80;;;;;;5135361;28;20051;-11
2022/11/01 00:51:57;;;;;;;3.53;3.22;;;19.50;57.80;;;;;;5135583;28;20078;-10
2022/11/01 00:54:22;;;;;;;4.63;3.30;;;19.50;57.80;;;;;;5135439;28;20130;-10
2022/11/01 00:56:48;;;;;;;4.13;3.08;;;19.50;57.80;;;;;;5135416;28;20047;-10
2022/11/01 00:59:13;;;;;;;3.97;3.53;;;19.50;57.70;;;;;;5135217;28;20058;-10
2022/11/01 01:01:39;;;;;;;3.30;2.80;;;19.50;57.70;;;;;;5135918;28;20053;-10
2022/11/01 01:04:04;;;;;;;3.35;3.03;;;19.50;57.70;;;;;;5135293;28;20130;-10
2022/11/01 01:06:30;;;;;;;3.63;2.90;;;19.50;57.70;;;;;;5135784;28;20108;-10
2022/11/01 01:09:00;;;;;;;3.72;3.08;;;19.50;57.80;;;;;;5135492;28;20055;-10
2022/11/01 01:11:26;;;;;;;4.07;3.42;;;19.50;57.70;;;;;;5135224;28;20103;-10
2022/11/01 01:13:52;;;;;;;3.65;3.20;;;19.50;57.70;;;;;;5135230;28;20510;-10
2022/11/01 01:16:17;;;;;;;3.33;3.00;;;19.50;57.70;;;;;;5135417;28;20054;-10
2022/11/01 01:18:43;;;;;;;3.50;3.20;;;19.50;57.70;;;;;;5133741;27;20418;-10
2022/11/01 01:21:09;;;;;;;3.33;3.03;;;19.50;57.80;;;;;;5134995;28;20414;-10
2022/11/01 01:23:35;;;;;;;3.65;3.35;;;19.50;57.70;;;;;;5134891;28;20047;-10
2022/11/01 01:26:09;;;;;;;3.83;2.78;;;19.50;57.70;;;;;;5135320;28;20047;-10
2022/11/01 01:28:35;;;;;;;3.67;3.35;;;19.50;57.70;;;;;;5135208;28;20047;-10
2022/11/01 01:31:06;;;;;;;3.95;3.20;;;19.50;57.70;;;;;;5135198;28;20058;-10
2022/11/01 01:33:32;;;;;;;3.28;2.97;;;19.50;57.70;;;;;;5135241;28;20138;-10
2022/11/01 01:36:01;;;;;;;4.28;3.38;;;19.50;57.70;;;;;;5135072;28;20082;-10
2022/11/01 01:38:27;;;;;;;4.53;3.33;;;19.50;57.70;;;;;;5134731;28;20084;-10
2022/11/01 01:40:53;;;;;;;5.63;3.08;;;19.50;57.70;;;;;;5134614;28;20047;-10
2022/11/01 01:43:19;;;;;;;3.72;3.33;;;19.50;57.70;;;;;;5134646;28;20048;-10
2022/11/01 01:45:44;;;;;;;3.95;3.45;;;19.50;57.70;;;;;;5134538;28;20499;-10
2022/11/01 01:48:40;;;;;;;3.17;2.88;;;19.50;57.70;;;;;;5134697;28;20055;-10
2022/11/01 01:51:24;;;;;;;4.00;3.10;;;19.50;57.70;;;;;;5130425;28;20047;-10
2022/11/01 01:53:56;;;;;;;4.63;3.47;;;19.50;57.70;;;;;;5134629;28;20130;-10
2022/11/01 01:56:35;;;;;;;3.35;2.97;;;19.50;57.70;;;;;;5134920;28;20058;-10
2022/11/01 01:59:07;;;;;;;3.70;3.30;;;19.50;57.70;;;;;;5134869;28;20538;-10
2022/11/01 02:01:35;;;;;;;3.95;3.22;;;19.50;57.70;;;;;;5134721;28;20180;-10
2022/11/01 02:04:02;;;;;;;3.72;3.40;;;19.50;57.70;;;;;;5134330;28;20047;-10
2022/11/01 02:06:27;;;;;;;4.30;2.80;;;19.50;57.70;;;;;;5133911;28;20142;-10
2022/11/01 02:08:56;;;;;;;4.18;3.20;;;19.50;57.70;;;;;;5134769;28;20519;-10
2022/11/01 02:11:22;;;;;;;3.42;3.10;;;19.50;57.70;;;;;;5134341;28;20051;-10
2022/11/01 02:13:48;;;;;;;3.10;2.78;;;19.50;57.70;;;;;;5134162;28;20051;-10
2022/11/01 02:16:25;;;;;;;3.83;2.88;;;19.50;57.70;;;;;;5134021;28;20055;-10
2022/11/01 02:19:07;;;;;;;3.38;3.08;;;19.50;57.70;;;;;;5134471;28;20445;-10
2022/11/01 02:22:02;;;;;;;3.45;2.95;;;19.50;57.70;;;;;;5134240;28;20063;-10
2022/11/01 02:24:49;;;;;;;3.45;3.15;;;19.50;57.70;;;;;;5133924;28;20047;-10
2022/11/01 02:27:36;;;;;;;3.30;3.00;;;19.50;57.70;;;;;;5133878;28;20527;-10
2022/11/01 02:30:22;;;;;;;3.70;3.28;;;19.50;57.70;;;;;;5133395;27;20401;-10
2022/11/01 02:32:51;;;;;;;3.72;3.20;;;19.50;57.70;;;;;;5134036;28;20055;-10
2022/11/01 02:35:54;;;;;;;4.07;3.40;;;19.50;57.70;;;;;;5133952;28;20043;-10
2022/11/01 02:38:40;;;;;;;3.10;2.80;;;19.50;57.70;;;;;;5133825;28;20094;-10
2022/11/01 02:41:17;;;;;;;3.85;2.92;;;19.50;57.70;;;;;;5133858;28;20074;-10
2022/11/01 02:43:53;;;;;;;3.00;2.70;;;19.50;57.70;;;;;;5134174;28;20471;-10
2022/11/01 02:49:06;;;;;;;4.03;3.10;;;19.50;57.70;;;;;;5133759;28;20502;-11
2022/11/01 02:51:34;;;;;;;3.50;2.92;;;19.50;57.70;;;;;;5134298;28;20047;-10
2022/11/01 02:54:04;;;;;;;4.20;3.30;;;19.50;57.70;;;;;;5134222;28;20390;-10
2022/11/01 02:56:30;;;;;;;3.25;2.95;;;19.50;57.70;;;;;;5133692;28;20103;-10
2022/11/01 02:58:56;;;;;;;2.97;2.55;;;19.50;57.70;;;;;;5133485;28;20483;-10
2022/11/01 03:01:27;;;;;;;4.85;2.80;;;19.50;57.70;;;;;;5133457;28;20054;-10
2022/11/01 03:03:55;;;;;;;3.35;3.05;;;19.50;57.70;;;;;;5133750;28;20050;-10
2022/11/01 03:06:31;;;;;;;4.13;3.25;;;19.50;57.70;;;;;;5133758;28;20055;-10
2022/11/01 03:09:01;;;;;;;3.38;3.05;;;19.50;57.70;;;;;;5133621;28;20051;-10
2022/11/01 03:11:53;;;;;;;3.45;3.15;;;19.50;57.70;;;;;;5114966;28;20138;-10
2022/11/01 03:14:39;;;;;;;3.88;3.38;;;19.50;57.70;;;;;;5133231;28;20047;-10
2022/11/01 03:17:22;;;;;;;4.22;3.70;;;19.50;57.70;;;;;;5133149;28;20058;-10
2022/11/01 03:20:14;;;;;;;3.17;2.80;;;19.50;57.70;;;;;;5133157;28;20495;-10
2022/11/01 03:22:47;;;;;;;3.15;2.85;;;19.50;57.70;;;;;;5133302;28;20051;-10
2022/11/01 03:25:39;;;;;;;3.95;3.45;;;19.50;57.70;;;;;;5133293;28;20047;-10
2022/11/01 03:28:20;;;;;;;3.33;2.97;;;19.50;57.70;;;;;;5133282;28;20066;-10
2022/11/01 03:30:54;;;;;;;4.05;3.15;;;19.50;57.60;;;;;;5133084;28;20058;-10
2022/11/01 03:33:21;;;;;;;3.65;3.10;;;19.50;57.60;;;;;;5133062;28;20054;-10
2022/11/01 03:35:50;;;;;;;3.55;3.25;;;19.50;57.70;;;;;;5132888;28;20058;-10
2022/11/01 03:38:20;;;;;;;3.88;3.15;;;19.50;57.60;;;;;;5133031;28;20047;-10
2022/11/01 03:40:54;;;;;;;3.53;3.03;;;19.50;57.70;;;;;;5132850;27;20083;-10
2022/11/01 03:43:25;;;;;;;5.00;3.92;;;19.50;57.60;;;;;;5136773;28;20096;-10
2022/11/01 03:45:50;;;;;;;4.10;3.10;;;19.50;57.60;;;;;;5136767;28;20051;-10
2022/11/01 03:48:16;;;;;;;4.13;3.38;;;19.50;58.20;;;;;;5136122;28;20486;-10
2022/11/01 03:50:47;;;;;;;3.63;3.20;;;19.50;57.60;;;;;;5136661;28;20054;-10
2022/11/01 03:53:13;;;;;;;3.08;2.78;;;19.50;57.60;;;;;;5136883;28;20045;-10
2022/11/01 03:55:39;;;;;;;3.50;3.20;;;19.50;57.70;;;;;;5136289;28;20130;-10
2022/11/01 03:58:06;;;;;;;3.33;2.95;;;19.50;57.70;;;;;;5135981;28;20142;-10
2022/11/01 04:00:41;;;;;;;3.42;3.03;;;19.50;57.70;;;;;;5136164;28;20047;-10
2022/11/01 04:03:07;;;;;;;3.80;2.78;;;19.50;57.60;;;;;;5136115;28;20059;-10
2022/11/01 04:05:34;;;;;;;3.55;2.90;;;19.50;57.60;;;;;;5136151;28;20112;-10
2022/11/01 04:08:00;;;;;;;4.68;3.10;;;19.50;57.60;;;;;;5136398;28;20055;-10
2022/11/01 04:10:27;;;;;;;3.83;3.05;;;19.50;57.70;;;;;;5136220;28;20119;-10
2022/11/01 04:12:54;;;;;;;3.10;2.72;;;19.50;57.60;;;;;;5136455;28;20387;-10
2022/11/01 04:21:04;;;;;;;3.72;3.20;;;19.60;57.50;;;;;;5136063;28;20095;-10
2022/11/01 04:23:30;;;;;;;3.58;3.28;;;19.60;57.50;;;;;;5136039;28;20044;-10
2022/11/01 04:25:56;;;;;;;3.40;3.10;;;19.60;57.50;;;;;;5136523;28;20130;-10
2022/11/01 04:28:22;;;;;;;3.92;3.53;;;19.60;57.40;;;;;;5135846;28;20090;-10
2022/11/01 04:30:48;;;;;;;3.65;3.20;;;19.70;57.30;;;;;;5135446;28;20406;-10
2022/11/01 04:33:14;;;;;;;3.30;3.00;;;19.70;57.30;;;;;;5136074;28;20043;-10
2022/11/01 04:35:40;;;;;;;4.15;3.50;;;19.70;57.30;;;;;;5135487;28;20061;-10
2022/11/01 04:38:05;;;;;;;3.50;2.97;;;19.80;57.30;;;;;;5135388;28;20078;-10
2022/11/01 04:40:32;;;;;;;4.40;3.35;;;19.80;57.20;;;;;;5135721;28;20518;-10
2022/11/01 04:42:58;;;;;;;4.43;3.50;;;19.80;57.20;;;;;;5135789;28;20079;-10
2022/11/01 04:45:24;;;;;;;3.47;3.05;;;19.90;57.10;;;;;;5135417;28;20079;-10
2022/11/01 04:48:15;;;;;;;3.22;2.90;;;19.90;57.00;;;;;;5135815;28;20550;-11
2022/11/01 04:50:41;;;;;;;;;;;19.90;57.00;;;;;;5136007;28;20070;-10
2022/11/01 04:53:07;;;;;;;3.58;3.00;;;19.90;57.10;;;;;;5135232;27;20359;-10
2022/11/01 04:55:33;;;;;;;4.43;3.70;;;19.90;57.00;;;;;;5135321;28;20070;-10
2022/11/01 04:57:59;;;;;;;3.53;3.20;;;19.90;57.00;;;;;;5135145;28;20052;-10
2022/11/01 05:00:25;;;;;;;3.50;3.20;;;19.90;57.10;;;;;;5135323;28;20130;-10
2022/11/01 05:02:51;;;;;;;4.28;3.38;;;19.90;57.10;;;;;;5135404;28;20423;-10
2022/11/01 05:05:18;;;;;;;3.83;3.33;;;19.80;57.10;;;;;;5135604;28;20055;-10
2022/11/01 05:07:44;;;;;;;4.55;3.55;;;19.80;57.20;;;;;;5135844;28;20051;-10
2022/11/01 05:10:10;;;;;;;4.07;3.67;;;19.80;57.20;;;;;;5135195;28;20073;-10
2022/11/01 05:12:36;;;;;;;3.92;3.33;;;19.80;57.20;;;;;;5135241;28;20063;-10
2022/11/01 05:15:02;;;;;;;3.42;3.10;;;19.80;57.30;;;;;;5135753;28;20375;-10
2022/11/01 05:17:28;;;;;;;3.72;3.28;;;19.80;57.30;;;;;;5135041;28;20047;-10
2022/11/01 05:19:54;;;;;;;3.50;3.20;;;19.80;57.40;;;;;;5134862;28;20059;-10
2022/11/01 05:22:19;;;;;;;4.00;3.60;;;19.80;57.40;;;;;;5135048;28;20047;-11
2022/11/01 05:24:45;;;;;;;3.35;3.05;;;19.80;57.40;;;;;;5135007;28;20051;-10
2022/11/01 05:27:11;;;;;;;4.25;3.30;;;19.80;57.50;;;;;;5134859;28;20051;-10
2022/11/01 05:29:36;;;;;;;4.22;3.30;;;19.80;57.50;;;;;;5134822;28;20052;-10
2022/11/01 05:32:02;;;;;;;4.03;3.60;;;19.70;57.50;;;;;;5135228;28;20087;-10
2022/11/01 05:34:27;;;;;;;3.38;3.08;;;19.70;57.50;;;;;;5134852;28;20047;-10
2022/11/01 05:36:53;;;;;;;4.60;3.63;;;19.70;57.60;;;;;;5134997;28;20055;-10
2022/11/01 05:39:19;;;;;;;4.00;3.55;;;19.70;57.60;;;;;;5134790;28;20047;-10
2022/11/01 05:41:44;;;;;;;4.25;3.17;;;19.70;57.60;;;;;;5134689;28;20062;-10
2022/11/01 05:44:10;;;;;;;3.97;3.15;;;19.70;57.60;;;;;;5134825;28;20495;-10
2022/11/01 05:46:35;;;;;;;4.07;3.22;;;19.70;57.70;;;;;;5134670;28;20054;-10
2022/11/01 05:49:01;;;;;;;4.10;3.28;;;19.70;58.20;;;;;;5134695;28;20051;-10
2022/11/01 05:51:26;;;;;;;3.67;3.28;;;19.70;57.70;;;;;;5134566;28;20058;-10
2022/11/01 05:53:52;;;;;;;4.25;3.30;;;19.70;57.70;;;;;;5116624;28;20471;-10
2022/11/01 05:56:17;;;;;;;4.22;3.20;;;19.70;57.70;;;;;;5114381;28;20130;-10
2022/11/01 05:58:45;;;;;;;4.03;3.63;;;19.70;57.80;;;;;;5134308;28;20051;-10
2022/11/01 06:01:10;;;;;;;4.20;3.35;;;19.70;57.80;;;;;;5134744;28;20684;-10
2022/11/01 06:03:36;;;;;;;5.05;3.95;;;19.70;57.70;;;;;;5134408;27;20047;-10
2022/11/01 06:06:03;;;;;;;5.07;4.00;;;19.70;57.80;;;;;;5133960;28;20047;-10
2022/11/01 06:08:30;;;;;;;3.97;3.58;;;19.60;57.80;;;;;;5134346;28;20053;-10
2022/11/01 06:11:04;;;;;;;4.30;3.72;;;19.70;57.80;;;;;;5134261;28;20055;-10
2022/11/01 06:13:32;;;;;;;4.20;3.78;;;19.60;57.70;;;;;;5134587;28;20050;-10
2022/11/01 06:16:04;;;;;;;3.70;3.33;;;19.70;57.80;;;;;;5134229;28;20059;-10
2022/11/01 06:18:32;;;;;;;4.57;3.80;;;19.70;57.70;;;;;;5134237;28;20076;-10
2022/11/01 06:20:59;;;;;;;4.05;3.55;;;19.70;57.60;;;;;;5133985;28;20062;-10
2022/11/01 06:23:26;;;;;;;4.05;3.65;;;19.80;57.60;;;;;;5134048;28;20050;-10
2022/11/01 06:26:01;;;;;;;4.30;3.70;;;19.70;57.50;;;;;;5134139;28;20106;-10
2022/11/01 06:28:27;;;;;;;3.97;3.58;;;19.80;57.50;;;;;;5134673;28;20042;-10
2022/11/01 06:30:58;;;;;;;4.40;3.55;;;19.80;57.50;;;;;;5133957;28;20059;-10
2022/11/01 06:33:24;;;;;;;;;;;19.80;57.50;;;;;;5134642;28;20391;-10
2022/11/01 06:35:49;;;;;;;4.30;3.25;;;19.80;57.50;;;;;;5133933;28;19916;-10
2022/11/01 06:38:15;;;;;;;3.72;3.42;;;19.80;57.50;;;;;;5134179;28;20266;-10
2022/11/01 06:40:40;;;;;;;4.57;4.13;;;19.80;57.50;;;;;;5133751;28;20051;-10
2022/11/01 06:43:06;;;;;;;4.20;3.70;;;19.80;57.50;;;;;;5133857;28;20054;-10
2022/11/01 06:45:32;;;;;;;3.90;3.58;;;19.80;57.50;;;;;;5133460;28;20055;-10
2022/11/01 06:47:58;;;;;;;3.92;3.45;;;19.80;57.50;;;;;;5115106;28;20051;-10
2022/11/01 06:50:24;;;;;;;3.97;3.58;;;19.80;57.50;;;;;;5133644;28;20139;-10
2022/11/01 06:52:49;;;;;;;4.50;3.92;;;19.80;57.50;;;;;;5134049;28;20062;-10
2022/11/01 06:55:15;;;;;;;3.80;3.40;;;19.80;57.50;;;;;;5133572;28;20054;-10
2022/11/01 06:57:41;;;;;;;3.97;3.58;;;19.80;57.60;;;;;;5133525;28;20495;-10
2022/11/01 07:00:08;;;;;;;4.63;4.13;;;19.80;57.60;;;;;;5133592;28;20043;-10
2022/11/01 07:02:34;;;;;;;4.13;3.55;;;19.80;57.60;;;;;;5133783;28;20058;-10
2022/11/01 07:05:00;;;;;;;3.80;3.30;;;19.80;57.60;;;;;;5133292;28;20069;-10
2022/11/01 07:07:25;;;;;;;4.70;3.88;;;19.80;57.60;;;;;;5133215;28;20051;-11
2022/11/01 07:09:51;;;;;;;5.95;3.80;;;19.80;57.60;;;;;;5133676;28;20106;-10
2022/11/01 07:12:17;;;;;;;5.28;3.97;;;19.80;57.60;;;;;;5133365;28;20505;-10
2022/11/01 07:14:42;;;;;;;4.90;3.95;;;19.80;57.60;;;;;;5133220;28;20130;-11
2022/11/01 07:17:08;;;;;;;5.10;4.35;;;19.80;57.70;;;;;;5136879;27;20453;-12
2022/11/01 07:19:34;;;;;;;4.80;3.97;;;19.80;57.70;;;;;;5114093;28;20055;-11
2022/11/01 07:21:59;;;;;;;4.65;3.88;;;19.80;57.80;;;;;;5137050;28;20059;-11
2022/11/01 07:24:25;;;;;;;4.68;4.18;;;19.70;57.70;;;;;;5118411;28;20156;-11
2022/11/01 07:26:50;;;;;;;6.13;4.20;;;19.80;57.80;;;;;;5136587;28;20077;-11
2022/11/01 07:29:16;;;;;;;5.85;3.85;;;19.70;57.80;;;;;;5136660;28;20168;-11
2022/11/01 07:31:41;;;;;;;4.63;3.85;;;19.70;57.70;;;;;;5117060;28;20054;-12
2022/11/01 07:34:07;;;;;;;4.20;3.58;;;19.80;57.80;;;;;;5136506;28;20051;-11
2022/11/01 07:36:33;;;;;;;5.47;4.22;;;19.80;57.80;;;;;;5136547;28;20051;-11
2022/11/01 07:38:58;;;;;;;4.90;4.40;;;19.70;57.70;;;;;;5136766;28;20058;-12
2022/11/01 07:41:24;;;;;;;5.55;4.13;;;19.80;57.80;;;;;;5136459;28;20055;-13
2022/11/01 07:43:50;;;;;;;4.97;4.07;;;19.70;57.70;;;;;;5117714;28;20107;-12
2022/11/01 07:46:15;;;;;;;5.28;4.15;;;19.80;57.80;;;;;;5117820;28;20485;-12
2022/11/01 07:48:41;;;;;;;4.75;4.00;;;19.80;57.80;;;;;;5116422;28;20055;-11
2022/11/01 07:51:08;;;;;;;4.32;3.90;;;19.80;57.70;;;;;;5117994;28;20477;-11
2022/11/01 07:53:34;;;;;;;4.50;3.95;;;19.80;57.70;;;;;;5136783;28;20055;-12
2022/11/01 07:56:01;;;;;;;4.47;3.88;;;19.80;57.70;;;;;;5135772;28;20107;-12
2022/11/01 07:58:28;;;;;;;7.07;5.28;;;19.80;57.70;;;;;;5117791;28;20043;-11
2022/11/01 08:00:55;;;;;;;5.82;4.25;;;19.80;57.70;;;;;;5136066;28;20112;-11
2022/11/01 08:03:22;;;;;;;6.72;5.07;;;19.80;57.70;;;;;;5135909;28;20464;-11
2022/11/01 08:05:48;;;;;;;5.85;4.70;;;19.80;57.70;;;;;;5116383;28;20418;-12
2022/11/01 08:08:15;;;;;;;5.25;4.43;;;19.80;57.70;;;;;;5135592;28;20051;-11
2022/11/01 08:10:41;;;;;;;6.85;4.95;;;19.90;57.80;;;;;;5116926;28;20475;-12
2022/11/01 08:13:15;;;;;;;7.45;4.95;;;19.90;57.70;;;;;;5135850;28;20407;-11
2022/11/01 08:15:40;;;;;;;5.03;4.53;;;19.80;57.70;;;;;;5135805;28;20054;-11
2022/11/01 08:18:07;;;;;;;4.97;4.13;;;19.80;57.70;;;;;;5135622;28;20055;-12
2022/11/01 08:20:33;;;;;;;4.07;3.67;;;19.90;57.80;;;;;;5135508;28;20069;-11
2022/11/01 08:22:58;;;;;;;6.20;4.95;;;19.90;57.80;;;;;;5135640;28;20491;-11
2022/11/01 08:25:24;;;;;;;5.63;4.80;;;19.80;57.70;;;;;;5136048;28;20059;-11
2022/11/01 08:27:50;;;;;;;7.18;4.85;;;19.90;57.70;;;;;;5134980;27;20051;-13
2022/11/01 08:30:17;;;;;;;6.28;4.30;;;19.80;57.70;;;;;;5136309;28;20542;-11
2022/11/01 08:32:46;;;;;;;7.18;4.80;;;19.80;58.20;;;;;;5135796;28;20062;-11
2022/11/01 08:35:12;;;;;;;5.13;4.30;;;19.90;57.70;;;;;;5136054;28;20427;-12
2022/11/01 08:37:48;;;;;;;5.47;4.22;;;19.90;57.70;;;;;;5135879;28;20142;-13
2022/11/01 08:40:14;;;;;;;5.70;3.92;;;19.90;57.60;;;;;;5135708;28;20051;-12
2022/11/01 08:42:40;;;;;;;5.85;4.50;;;19.90;57.60;;;;;;5135068;28;20077;-12
2022/11/01 08:45:06;;;;;;;6.25;4.63;;;19.90;57.70;;;;;;5135101;28;20055;-12
2022/11/01 08:47:32;;;;;;;5.82;5.00;;;19.90;57.70;;;;;;5135405;28;20053;-11
2022/11/01 08:49:58;;;;;;;5.28;4.38;;;19.90;57.70;;;;;;5134995;28;20117;-11
2022/11/01 08:52:24;;;;;;;6.15;4.45;;;19.80;57.70;;;;;;5134960;28;20059;-12
2022/11/01 08:54:50;;;;;;;5.85;4.60;;;19.90;57.70;;;;;;5135100;28;20088;-11
2022/11/01 08:57:16;;;;;;;6.03;4.70;;;19.90;57.80;;;;;;5135152;28;20129;-13
2022/11/01 08:59:41;;;;;;;5.20;4.55;;;19.90;57.80;;;;;;5135133;28;20440;-12
2022/11/01 09:02:10;;;;;;;5.68;4.72;;;19.90;57.80;;;;;;5135013;28;20054;-12
2022/11/01 09:04:36;;;;;;;6.68;5.22;;;19.80;57.70;;;;;;5134808;28;20047;-12
2022/11/01 09:07:02;;;;;;;6.47;4.80;;;19.90;57.70;;;;;;5135124;28;20046;-11
2022/11/01 09:09:28;;;;;;;5.65;4.68;;;19.90;57.70;;;;;;5116657;28;20084;-12
2022/11/01 09:11:54;;;;;;;6.00;5.13;;;19.90;57.70;;;;;;5135033;28;20491;-12
2022/11/01 09:14:23;;;;;;;5.55;4.70;;;19.90;57.60;;;;;;5135180;28;20047;-10
2022/11/01 09:16:49;;;;;;;6.40;5.15;;;19.90;57.60;;;;;;5134961;28;20046;-10
2022/11/01 09:19:15;;;;;;;5.95;4.65;;;19.90;57.60;;;;;;5134594;28;20047;-10
2022/11/01 09:21:45;;;;;;;7.85;5.32;;;19.90;57.60;;;;;;5135048;28;20074;-10
2022/11/01 09:24:12;;;;;;;7.18;4.95;;;19.90;57.50;;;;;;5134682;28;20081;-10
2022/11/01 09:26:38;;;;;;;6.50;5.32;;;20.00;57.60;;;;;;5135083;28;20058;-10
2022/11/01 09:29:05;;;;;;;6.45;4.80;;;20.00;57.60;;;;;;5134777;28;20081;-10
2022/11/01 09:31:32;;;;;;;9.00;4.70;;;20.00;57.60;;;;;;5134634;28;20107;-10
2022/11/01 09:33:59;;;;;;;7.50;5.38;;;20.00;57.60;;;;;;5134760;28;20053;-11
2022/11/01 09:36:26;;;;;;;8.45;5.78;;;20.00;57.50;;;;;;5134593;28;20043;-11
2022/11/01 09:38:53;;;;;;;6.53;4.93;;;20.00;57.50;;;;;;5133487;27;20099;-11
2022/11/01 09:41:41;;;;;;;6.63;5.13;;;20.00;57.50;;;;;;5134464;28;20043;-11
2022/11/01 09:44:13;;;;;;;7.10;5.28;;;20.00;57.50;;;;;;5134604;28;20046;-11
2022/11/01 09:47:03;;;;;;;7.13;5.03;;;20.00;57.50;;;;;;5134638;28;20047;-10
2022/11/01 09:49:35;;;;;;;7.95;5.30;;;20.00;57.50;;;;;;5134478;28;20075;-11
2022/11/01 09:52:02;;;;;;;7.88;5.82;;;20.10;57.50;;;;;;5116281;28;20134;-11
2022/11/01 09:54:28;;;;;;;7.00;5.13;;;20.00;57.40;;;;;;5134843;28;20043;-11
2022/11/01 09:57:06;;;;;;;7.07;5.57;;;20.00;57.50;;;;;;5134577;28;20402;-11
2022/11/01 10:00:03;;;;;;;7.88;5.63;;;20.00;57.50;;;;;;5133898;28;20150;-11
2022/11/01 10:03:10;;;;;;;6.85;5.03;;;20.00;57.50;;;;;;5193003;27;20164;-10
2022/11/01 10:05:51;;;;;;;10.20;5.90;;;20.00;57.60;;;;;;5171487;27;20539;-12
2022/11/01 10:08:34;;;;;;;7.28;5.32;;;20.00;57.50;;;;;;5171240;27;20050;-11
2022/11/01 10:11:03;;;;;;;7.05;5.85;;;20.00;57.50;;;;;;5171325;27;20050;-12
2022/11/01 10:13:43;;;;;;;10.70;5.57;;;20.00;57.60;;;;;;5171774;27;20054;-12
2022/11/01 10:16:40;;;;;;;9.25;5.93;;;20.00;57.60;;;;;;5171364;27;20057;-12
2022/11/01 10:19:16;;;;;;;8.10;5.38;;;20.00;57.60;;;;;;5171355;27;20050;-12
2022/11/01 10:21:55;;;;;;;7.47;5.63;;;20.00;57.60;;;;;;5171296;27;20046;-12
2022/11/01 10:24:42;;;;;;;8.13;5.75;;;20.00;57.60;;;;;;5171533;27;20140;-12
2022/11/01 10:27:51;;;;;;;8.70;5.75;;;20.00;57.60;;;;;;5171446;27;20054;-12
2022/11/01 10:30:18;;;;;;;8.68;5.82;;;20.00;57.60;;;;;;5149181;27;20042;-12
2022/11/01 10:33:01;;;;;;;8.25;5.70;;;20.00;57.60;;;;;;5170968;27;20512;-12
2022/11/01 10:35:41;;;;;;;9.50;6.13;;;20.00;57.60;;;;;;5170956;27;20059;-12
2022/11/01 10:38:33;;;;;;;9.85;6.15;;;20.00;57.70;;;;;;5170831;27;20137;-12
2022/11/01 10:41:08;;;;;;;6.90;5.30;;;20.00;57.60;;;;;;5170847;27;20050;-13
2022/11/01 10:43:49;;;;;;;8.60;5.32;;;20.00;57.60;;;;;;5171365;27;20058;-12
2022/11/01 10:46:22;;;;;;;8.00;6.15;;;20.10;57.70;;;;;;5171453;27;20482;-12
2022/11/01 10:48:52;;;;;;;9.50;5.88;;;20.10;57.70;;;;;;5171039;27;20057;-10
2022/11/01 10:51:21;;;;;;;6.45;5.78;;;20.10;57.60;;;;;;5170870;27;20046;-12
2022/11/01 10:53:52;;;;;;;7.18;6.10;;;20.10;57.60;;;;;;5170970;27;20051;-12
2022/11/01 10:56:23;;;;;;;9.10;5.80;;;20.10;57.60;;;;;;5170935;27;20042;-12
2022/11/01 10:59:01;;;;;;;7.57;5.88;;;20.10;57.60;;;;;;5170860;27;20061;-12
2022/11/01 11:01:35;;;;;;;9.18;5.80;;;20.10;57.60;;;;;;5171027;27;20591;-12
2022/11/01 11:04:05;;;;;;;7.97;5.50;;;20.10;57.60;;;;;;5170597;27;20057;-12
2022/11/01 11:06:32;;;;;;;8.30;5.90;;;20.10;57.60;;;;;;5171023;27;20054;-12
2022/11/01 11:08:59;;;;;;;7.45;5.60;;;20.10;57.60;;;;;;5170900;27;20161;-12
2022/11/01 11:11:39;;;;;;;8.20;5.80;;;20.10;57.60;;;;;;5170500;27;20049;-12
2022/11/01 11:14:07;;;;;;;7.82;5.93;;;20.10;57.60;;;;;;5156227;27;20054;-12
2022/11/01 11:16:43;;;;;;;10.70;5.85;;;20.10;57.60;;;;;;5156869;27;20054;-12
2022/11/01 11:19:10;;;;;;;8.70;5.70;;;20.20;57.70;;;;;;5156594;27;20050;-12
2022/11/01 11:21:37;;;;;;;7.10;6.10;;;20.20;57.70;;;;;;5156420;27;20050;-12
2022/11/01 11:24:03;;;;;;;9.70;6.40;;;20.20;57.70;;;;;;5156804;27;20046;-12
2022/11/01 11:26:37;;;;;;;11.90;6.75;;;20.20;57.70;;;;;;5156469;27;20092;-12
2022/11/01 11:29:06;;;;;;;7.95;6.40;;;20.10;57.70;;;;;;5156489;27;20043;-12
2022/11/01 11:31:33;;;;;;;7.72;5.90;;;20.10;57.70;;;;;;5156365;27;20070;-12
2022/11/01 11:34:15;;;;;;;9.35;5.75;;;20.20;57.70;;;;;;5156238;27;20055;-12
2022/11/01 11:36:44;;;;;;;8.23;5.90;;;20.20;57.70;;;;;;5156310;27;20398;-12
2022/11/01 11:39:28;;;;;;;9.25;5.30;;;20.20;57.70;;;;;;5156445;27;20086;-11
2022/11/01 11:42:17;;;;;;;6.75;5.13;;;20.20;57.70;;;;;;5156256;27;20043;-11
2022/11/01 11:44:48;;;;;;;9.20;5.60;;;20.20;57.70;;;;;;5156205;27;20043;-12
2022/11/01 11:47:23;;;;;;;8.60;5.78;;;20.10;57.50;;;;;;5156056;27;20145;-12
2022/11/01 11:49:55;;;;;;;8.25;5.75;;;20.10;57.50;;;;;;5156288;27;20508;-12
2022/11/01 11:52:31;;;;;;;7.32;5.90;;;20.10;57.50;;;;;;5156484;27;20053;-12
2022/11/01 11:54:57;;;;;;;11.23;5.85;;;20.10;57.50;;;;;;5156221;27;20054;-12
2022/11/01 11:57:26;;;;;;;9.43;5.90;;;20.10;57.40;;;;;;5155980;27;20046;-12
2022/11/01 11:59:54;;;;;;;11.98;5.32;;;20.10;57.40;;;;;;5156043;27;20042;-12
2022/11/01 12:02:24;;;;;;;10.20;5.78;;;20.10;57.90;;;;;;5155861;27;20480;-11
2022/11/01 12:04:55;;;;;;;8.98;5.95;;;20.10;57.40;;;;;;5155987;27;20107;-11
2022/11/01 12:07:27;;;;;;;7.17;5.47;;;20.10;57.30;;;;;;5156180;27;20475;-12
2022/11/01 12:09:55;;;;;;;10.32;5.55;;;20.10;57.30;;;;;;5155800;27;20516;-12
2022/11/01 12:12:39;;;;;;;8.32;4.90;;;20.10;57.30;;;;;;5137281;27;20054;-11
2022/11/01 12:15:25;;;;;;;7.30;5.18;;;20.10;57.30;;;;;;5156113;27;20050;-12
2022/11/01 12:17:51;;;;;;;7.82;5.03;;;20.10;57.80;;;;;;5155695;27;20053;-12
2022/11/01 12:20:21;;;;;;;9.55;4.88;;;20.10;57.20;;;;;;5155512;27;20486;-12
2022/11/01 12:22:51;;;;;;;6.25;5.25;;;20.10;57.20;;;;;;5155623;27;20074;-11
2022/11/01 12:25:21;;;;;;;8.80;5.43;;;20.10;57.20;;;;;;5154741;27;20081;-12
2022/11/01 12:27:59;;;;;;;9.13;5.43;;;20.10;57.20;;;;;;5156144;27;20052;-12
2022/11/01 12:30:29;;;;;;;8.25;5.10;;;20.10;57.20;;;;;;5155550;27;20362;-12
2022/11/01 12:32:58;;;;;;;9.23;5.13;;;20.10;57.20;;;;;;5155327;27;20505;-12
2022/11/01 12:35:33;;;;;;;8.68;5.47;;;20.10;57.20;;;;;;5155375;27;20062;-12
2022/11/01 12:38:21;;;;;;;9.15;4.57;;;20.10;57.20;;;;;;5155078;27;20071;-12
2022/11/01 12:40:51;;;;;;;8.68;4.85;;;20.10;57.10;;;;;;5154845;27;20073;-11
2022/11/01 12:43:52;;;;;;;9.35;4.90;;;20.10;57.10;;;;;;5155127;27;20470;-11
2022/11/01 12:46:29;;;;;;;7.57;4.95;;;20.10;57.10;;;;;;5051059;28;20057;-11
2022/11/01 12:49:08;;;;;;;8.90;5.07;;;20.10;57.20;;;;;;5140891;27;20047;-11
2022/11/01 12:51:40;;;;;;;9.80;5.40;;;20.10;57.20;;;;;;5155167;27;20095;-11
2022/11/01 12:54:27;;;;;;;6.97;4.97;;;20.10;57.20;;;;;;5154886;27;20046;-11
2022/11/01 12:56:55;;;;;;;8.32;5.05;;;20.10;57.10;;;;;;5155105;27;20049;-11
2022/11/01 12:59:30;;;;;;;7.50;5.13;;;20.10;57.10;;;;;;5154841;27;20042;-11
2022/11/01 13:02:12;;;;;;;7.43;4.40;;;20.10;57.10;;;;;;5154912;27;20134;-11
2022/11/01 13:04:55;;;;;;;9.73;4.93;;;20.10;57.10;;;;;;5154937;27;20125;-11
2022/11/01 13:07:31;;;;;;;6.55;4.57;;;20.10;57.10;;;;;;5154742;27;20054;-11
2022/11/01 13:10:17;;;;;;;7.97;4.88;;;20.10;57.00;;;;;;5154759;27;20551;-11
2022/11/01 13:12:53;;;;;;;5.95;4.20;;;20.10;57.00;;;;;;5154751;27;20049;-11